createdAt,value
2018-04-25T00:02:26.916Z,100243.77
2018-04-25T00:05:31.909Z,100238.72
2018-04-25T00:08:37.724Z,100227.67
2018-04-25T00:11:43.473Z,100225.14
2018-04-25T00:14:49.696Z,100228.53
2018-04-25T00:17:54.962Z,100225.64
2018-04-25T00:20:59.956Z,100216.25
2018-04-25T00:24:04.913Z,100206.50
2018-04-25T00:27:10.481Z,100199.67
2018-04-25T00:30:15.745Z,100200.17
2018-04-25T00:33:21.310Z,100195.12
2018-04-25T00:36:26.761Z,100176.34
2018-04-25T00:39:32.757Z,100173.45
2018-04-25T00:42:37.692Z,100162.77
2018-04-25T00:45:43.466Z,100155.20
2018-04-25T00:48:48.293Z,100145.81
2018-04-25T00:51:54.359Z,100141.20
2018-04-25T00:55:00.017Z,100138.69
2018-04-25T00:58:04.713Z,100128.01
2018-04-25T01:01:09.369Z,100122.01
2018-04-25T01:04:15.036Z,100113.94
2018-04-25T01:07:19.673Z,100112.70
2018-04-25T01:10:24.353Z,100098.09
2018-04-25T01:13:29.692Z,100089.25
2018-04-25T01:16:34.364Z,100087.05
2018-04-25T01:19:39.627Z,100087.09
2018-04-25T01:22:48.175Z,100075.13
2018-04-25T01:25:58.702Z,100066.56
2018-04-25T01:29:06.836Z,100061.89
2018-04-25T01:32:11.257Z,100053.38
2018-04-25T01:35:16.736Z,100045.31
2018-04-25T01:38:21.381Z,100035.00
2018-04-25T01:41:26.044Z,100033.34
2018-04-25T01:44:34.594Z,100014.52
2018-04-25T01:47:39.017Z,100013.70
2018-04-25T01:50:43.448Z,99999.08
2018-04-25T01:54:00.460Z,99989.23
2018-04-25T01:57:23.074Z,99981.95
2018-04-25T02:00:47.140Z,99970.36
2018-04-25T02:03:58.640Z,99964.67
2018-04-25T02:07:04.371Z,99953.03
2018-04-25T02:10:10.151Z,99947.37
2018-04-25T02:13:15.397Z,99938.34
2018-04-25T02:16:21.571Z,99927.02
2018-04-25T02:19:27.593Z,99926.05
2018-04-25T02:22:33.535Z,99916.81
2018-04-25T02:25:39.664Z,99903.88
2018-04-25T02:28:45.332Z,99902.50
2018-04-25T02:31:51.475Z,99896.05
2018-04-25T02:34:57.609Z,99893.79
2018-04-25T02:38:03.814Z,99887.73
2018-04-25T02:41:08.746Z,99879.89
2018-04-25T02:44:13.965Z,99869.56
2018-04-25T02:47:20.173Z,99863.45
2018-04-25T02:50:25.385Z,99855.25
2018-04-25T02:53:31.708Z,99848.69
2018-04-25T02:56:37.401Z,99832.31
2018-04-25T02:59:43.289Z,99825.44
2018-04-25T03:02:50.436Z,99823.59
2018-04-25T03:05:56.257Z,99819.63
2018-04-25T03:09:02.383Z,99818.30
2018-04-25T03:12:08.517Z,99818.09
2018-04-25T03:15:13.868Z,99815.38
2018-04-25T03:18:19.073Z,99806.70
2018-04-25T03:21:25.002Z,99811.20
2018-04-25T03:24:30.297Z,99802.07
2018-04-25T03:27:35.493Z,99785.59
2018-04-25T03:30:41.222Z,99790.98
2018-04-25T03:33:46.605Z,99791.73
2018-04-25T03:36:52.741Z,99782.08
2018-04-25T03:39:58.005Z,99768.27
2018-04-25T03:43:03.221Z,99777.05
2018-04-25T03:46:08.474Z,99768.41
2018-04-25T03:49:14.486Z,99767.73
2018-04-25T03:52:20.409Z,99754.33
2018-04-25T03:55:26.574Z,99749.09
2018-04-25T03:58:31.788Z,99733.93
2018-04-25T04:01:37.902Z,99734.73
2018-04-25T04:04:43.923Z,99729.84
2018-04-25T04:07:51.152Z,99719.47
2018-04-25T04:10:57.009Z,99720.59
2018-04-25T04:14:03.015Z,99712.83
2018-04-25T04:17:08.233Z,99707.59
2018-04-25T04:20:14.393Z,99695.52
2018-04-25T04:23:20.012Z,99695.85
2018-04-25T04:26:25.212Z,99700.47
2018-04-25T04:29:32.093Z,99691.27
2018-04-25T04:32:38.233Z,99690.29
2018-04-25T04:35:44.352Z,99690.54
2018-04-25T04:38:50.692Z,99692.98
2018-04-25T04:41:56.424Z,99682.54
2018-04-25T04:45:02.614Z,99674.67
2018-04-25T04:48:08.721Z,99659.55
2018-04-25T04:51:14.356Z,99671.37
2018-04-25T04:54:20.498Z,99672.52
2018-04-25T04:57:26.255Z,99663.02
2018-04-25T05:00:31.721Z,99660.69
2018-04-25T05:03:37.661Z,99660.11
2018-04-25T05:06:43.345Z,99661.59
2018-04-25T05:09:49.489Z,99664.03
2018-04-25T05:12:55.618Z,99659.96
2018-04-25T05:16:01.085Z,99661.95
2018-04-25T05:19:07.195Z,99659.11
2018-04-25T05:22:12.404Z,99648.23
2018-04-25T05:25:17.613Z,99650.17
2018-04-25T05:28:22.858Z,99649.48
2018-04-25T05:31:28.069Z,99655.28
2018-04-25T05:34:34.014Z,99650.01
2018-04-25T05:37:39.710Z,99646.75
2018-04-25T05:40:45.857Z,99653.37
2018-04-25T05:43:51.078Z,99652.44
2018-04-25T05:46:56.416Z,99654.82
2018-04-25T05:50:03.494Z,99654.22
2018-04-25T05:53:09.532Z,99655.23
2018-04-25T05:56:15.456Z,99653.69
2018-04-25T05:59:21.489Z,99650.84
2018-04-25T06:02:26.695Z,99645.94
2018-04-25T06:05:31.612Z,99654.69
2018-04-25T06:08:37.941Z,99645.35
2018-04-25T06:11:42.921Z,99646.22
2018-04-25T06:14:48.164Z,99639.73
2018-04-25T06:17:54.275Z,99638.91
2018-04-25T06:20:59.503Z,99637.69
2018-04-25T06:24:04.396Z,99630.14
2018-04-25T06:27:09.610Z,99626.38
2018-04-25T06:30:14.824Z,99621.81
2018-04-25T06:33:20.055Z,99623.28
2018-04-25T06:36:25.732Z,99627.77
2018-04-25T06:39:30.992Z,99632.22
2018-04-25T06:42:37.244Z,99623.32
2018-04-25T06:45:43.307Z,99623.77
2018-04-25T06:48:49.443Z,99617.56
2018-04-25T06:51:55.382Z,99608.72
2018-04-25T06:55:00.633Z,99605.06
2018-04-25T06:58:07.029Z,99603.02
2018-04-25T07:01:12.262Z,99598.91
2018-04-25T07:04:18.690Z,99590.86
2018-04-25T07:07:24.671Z,99597.53
2018-04-25T07:10:30.473Z,99594.72
2018-04-25T07:13:36.692Z,99585.43
2018-04-25T07:16:41.881Z,99592.45
2018-04-25T07:19:48.016Z,99587.05
2018-04-25T07:22:54.188Z,99590.59
2018-04-25T07:25:59.935Z,99588.88
2018-04-25T07:29:05.589Z,99588.23
2018-04-25T07:32:11.709Z,99596.16
2018-04-25T07:35:16.995Z,99598.44
2018-04-25T07:38:22.966Z,99601.66
2018-04-25T07:41:30.096Z,99602.82
2018-04-25T07:44:36.027Z,99597.48
2018-04-25T07:47:42.065Z,99613.12
2018-04-25T07:50:48.220Z,99609.07
2018-04-25T07:53:54.292Z,99605.02
2018-04-25T07:56:59.485Z,99593.73
2018-04-25T08:00:04.137Z,99609.84
2018-04-25T08:03:09.370Z,99608.55
2018-04-25T08:06:14.570Z,99597.77
2018-04-25T08:09:20.206Z,99600.04
2018-04-25T08:12:37.161Z,99599.42
2018-04-25T08:15:53.928Z,99613.54
2018-04-25T08:19:09.965Z,99611.37
2018-04-25T08:22:14.885Z,99600.40
2018-04-25T08:25:20.109Z,99618.45
2018-04-25T08:28:25.299Z,99621.50
2018-04-25T08:31:32.427Z,99623.08
2018-04-25T08:34:38.230Z,99624.94
2018-04-25T08:37:44.262Z,99624.19
2018-04-25T08:40:50.261Z,99635.08
2018-04-25T08:43:56.285Z,99616.80
2018-04-25T08:47:02.314Z,99612.56
2018-04-25T08:50:08.341Z,99617.86
2018-04-25T08:53:14.466Z,99626.29
2018-04-25T08:56:20.497Z,99628.63
2018-04-25T08:59:26.421Z,99633.88
2018-04-25T09:02:31.405Z,99641.88
2018-04-25T09:05:36.598Z,99647.55
2018-04-25T09:08:41.814Z,99637.52
2018-04-25T09:11:47.006Z,99653.92
2018-04-25T09:14:53.333Z,99641.17
2018-04-25T09:17:58.944Z,99639.41
2018-04-25T09:21:04.533Z,99646.87
2018-04-25T09:24:10.197Z,99657.95
2018-04-25T09:27:15.389Z,99671.05
2018-04-25T09:30:20.379Z,99681.43
2018-04-25T09:33:26.508Z,99692.39
2018-04-25T09:36:32.433Z,99686.28
2018-04-25T09:39:38.237Z,99705.13
2018-04-25T09:42:44.433Z,99715.05
2018-04-25T09:45:49.709Z,99719.89
2018-04-25T09:48:56.878Z,99723.60
2018-04-25T09:52:02.405Z,99736.81
2018-04-25T09:55:08.461Z,99751.30
2018-04-25T09:58:13.662Z,99774.11
2018-04-25T10:01:24.362Z,99775.58
2018-04-25T10:04:29.936Z,99786.41
2018-04-25T10:07:35.349Z,99786.16
2018-04-25T10:10:40.596Z,99800.88
2018-04-25T10:13:46.829Z,99799.50
2018-04-25T10:16:52.038Z,99803.84
2018-04-25T10:19:57.225Z,99801.06
2018-04-25T10:23:03.881Z,99801.09
2018-04-25T10:26:09.085Z,99811.41
2018-04-25T10:29:14.297Z,99825.17
2018-04-25T10:32:20.398Z,99830.31
2018-04-25T10:35:25.801Z,99830.66
2018-04-25T10:38:31.784Z,99843.52
2018-04-25T10:41:36.969Z,99844.97
2018-04-25T10:44:43.105Z,99862.27
2018-04-25T10:47:48.739Z,99871.85
2018-04-25T10:50:53.928Z,99877.90
2018-04-25T10:54:00.386Z,99906.53
2018-04-25T10:57:05.583Z,99904.53
2018-04-25T11:00:11.705Z,99930.61
2018-04-25T11:03:17.618Z,99934.06
2018-04-25T11:06:23.672Z,99967.62
2018-04-25T11:09:29.766Z,99980.78
2018-04-25T11:12:35.805Z,99993.37
2018-04-25T11:15:42.856Z,100003.73
2018-04-25T11:18:48.646Z,100027.07
2018-04-25T11:21:55.589Z,100037.53
2018-04-25T11:25:01.238Z,100057.70
2018-04-25T11:28:07.298Z,100064.63
2018-04-25T11:31:13.319Z,100073.45
2018-04-25T11:34:19.465Z,100097.85
2018-04-25T11:37:25.525Z,100101.77
2018-04-25T11:40:31.917Z,100098.02
2018-04-25T11:43:37.117Z,100112.80
2018-04-25T11:46:42.325Z,100119.80
2018-04-25T11:49:48.255Z,100130.27
2018-04-25T11:52:54.422Z,100139.44
2018-04-25T11:56:00.497Z,100143.47
2018-04-25T11:59:06.492Z,100147.12
2018-04-25T12:02:13.378Z,100161.50
2018-04-25T12:05:19.215Z,100169.23
2018-04-25T12:08:24.453Z,100180.00
2018-04-25T12:11:29.673Z,100180.42
2018-04-25T12:14:35.696Z,100199.36
2018-04-25T12:17:42.785Z,100206.84
2018-04-25T12:20:48.593Z,100205.97
2018-04-25T12:23:54.757Z,100212.92
2018-04-25T12:27:00.840Z,100218.94
2018-04-25T12:30:07.942Z,100227.08
2018-04-25T12:33:13.777Z,100235.04
2018-04-25T12:36:19.010Z,100244.09
2018-04-25T12:39:24.209Z,100251.63
2018-04-25T12:42:30.420Z,100253.88
2018-04-25T12:45:37.213Z,100267.30
2018-04-25T12:48:42.829Z,100262.31
2018-04-25T12:51:48.949Z,100266.16
2018-04-25T12:54:55.082Z,100271.84
2018-04-25T12:58:00.291Z,100277.08
2018-04-25T13:01:06.302Z,100288.30
2018-04-25T13:04:12.516Z,100284.80
2018-04-25T13:07:18.324Z,100282.84
2018-04-25T13:10:23.534Z,100284.95
2018-04-25T13:13:29.245Z,100292.62
2018-04-25T13:16:34.189Z,100303.33
2018-04-25T13:19:39.425Z,100307.09
2018-04-25T13:22:44.646Z,100322.02
2018-04-25T13:25:50.269Z,100323.24
2018-04-25T13:28:55.884Z,100326.89
2018-04-25T13:32:01.282Z,100324.83
2018-04-25T13:35:07.404Z,100336.05
2018-04-25T13:38:13.409Z,100338.95
2018-04-25T13:41:19.590Z,100339.48
2018-04-25T13:44:25.565Z,100342.56
2018-04-25T13:47:31.617Z,100342.23
2018-04-25T13:50:37.457Z,100344.51
2018-04-25T13:53:42.401Z,100354.38
2018-04-25T13:56:47.650Z,100355.47
2018-04-25T13:59:53.500Z,100358.31
2018-04-25T14:02:59.418Z,100363.77
2018-04-25T14:06:04.080Z,100362.33
2018-04-25T14:09:09.517Z,100357.87
2018-04-25T14:12:15.557Z,100370.70
2018-04-25T14:15:21.722Z,100369.96
2018-04-25T14:18:26.910Z,100378.98
2018-04-25T14:21:32.837Z,100390.48
2018-04-25T14:24:38.120Z,100389.84
2018-04-25T14:27:43.509Z,100386.49
2018-04-25T14:30:48.722Z,100398.61
2018-04-25T14:33:53.977Z,100397.55
2018-04-25T14:36:59.189Z,100404.23
2018-04-25T14:40:04.885Z,100399.86
2018-04-25T14:43:10.087Z,100403.58
2018-04-25T14:46:15.293Z,100402.97
2018-04-25T14:49:21.201Z,100402.78
2018-04-25T14:52:27.323Z,100413.80
2018-04-25T14:55:33.399Z,100411.63
2018-04-25T14:58:39.313Z,100417.92
2018-04-25T15:01:44.189Z,100426.33
2018-04-25T15:04:49.633Z,100428.03
2018-04-25T15:07:54.853Z,100431.70
2018-04-25T15:11:00.790Z,100428.65
2018-04-25T15:14:05.665Z,100427.27
2018-04-25T15:17:11.090Z,100426.75
2018-04-25T15:20:17.222Z,100426.61
2018-04-25T15:23:24.089Z,100432.17
2018-04-25T15:26:29.703Z,100426.05
2018-04-25T15:29:34.733Z,100432.90
2018-04-25T15:32:39.916Z,100438.41
2018-04-25T15:35:46.037Z,100434.59
2018-04-25T15:38:53.189Z,100432.53
2018-04-25T15:41:59.053Z,100433.51
2018-04-25T15:45:04.441Z,100440.09
2018-04-25T15:48:09.422Z,100439.83
2018-04-25T15:51:15.528Z,100441.64
2018-04-25T15:54:21.149Z,100454.16
2018-04-25T15:57:26.360Z,100446.16
2018-04-25T16:00:31.573Z,100452.28
2018-04-25T16:03:36.893Z,100453.63
2018-04-25T16:06:42.329Z,100448.16
2018-04-25T16:09:47.339Z,100452.98
2018-04-25T16:12:53.158Z,100450.84
2018-04-25T16:15:59.965Z,100452.22
2018-04-25T16:19:05.746Z,100451.03
2018-04-25T16:22:11.693Z,100443.09
2018-04-25T16:25:18.416Z,100444.01
2018-04-25T16:28:24.606Z,100447.92
2018-04-25T16:31:30.877Z,100448.95
2018-04-25T16:34:37.069Z,100442.98
2018-04-25T16:37:42.339Z,100439.63
2018-04-25T16:40:48.298Z,100435.45
2018-04-25T16:43:54.153Z,100434.20
2018-04-25T16:47:00.384Z,100427.86
2018-04-25T16:50:05.613Z,100428.42
2018-04-25T16:53:10.822Z,100422.03
2018-04-25T16:56:17.746Z,100416.99
2018-04-25T16:59:23.345Z,100412.77
2018-04-25T17:02:28.433Z,100413.73
2018-04-25T17:05:33.745Z,100417.28
2018-04-25T17:08:39.009Z,100417.73
2018-04-25T17:11:45.157Z,100416.91
2018-04-25T17:14:50.628Z,100415.72
2018-04-25T17:17:56.890Z,100415.81
2018-04-25T17:21:02.007Z,100415.56
2018-04-25T17:24:07.335Z,100415.20
2018-04-25T17:27:12.538Z,100416.99
2018-04-25T17:30:17.772Z,100414.52
2018-04-25T17:33:23.317Z,100411.25
2018-04-25T17:36:29.204Z,100402.80
2018-04-25T17:39:35.017Z,100399.92
2018-04-25T17:42:40.948Z,100398.41
2018-04-25T17:45:46.951Z,100399.89
2018-04-25T17:48:53.140Z,100401.33
2018-04-25T17:51:58.381Z,100407.27
2018-04-25T17:55:04.033Z,100399.78
2018-04-25T17:58:10.110Z,100400.39
2018-04-25T18:01:15.345Z,100403.72
2018-04-25T18:04:21.517Z,100409.06
2018-04-25T18:07:26.709Z,100409.44
2018-04-25T18:10:31.919Z,100412.34
2018-04-25T18:13:37.884Z,100412.66
2018-04-25T18:16:43.885Z,100415.16
2018-04-25T18:19:50.062Z,100413.77
2018-04-25T18:22:56.381Z,100417.72
2018-04-25T18:26:02.426Z,100416.95
2018-04-25T18:29:08.434Z,100416.30
2018-04-25T18:32:13.637Z,100415.61
2018-04-25T18:35:18.841Z,100416.30
2018-04-25T18:38:23.797Z,100415.23
2018-04-25T18:41:29.821Z,100417.06
2018-04-25T18:44:36.006Z,100424.13
2018-04-25T18:47:42.043Z,100426.41
2018-04-25T18:50:47.918Z,100426.22
2018-04-25T18:53:54.290Z,100431.41
2018-04-25T18:57:01.339Z,100440.71
2018-04-25T19:00:06.521Z,100431.62
2018-04-25T19:03:12.880Z,100441.78
2018-04-25T19:06:18.524Z,100448.28
2018-04-25T19:09:23.773Z,100448.70
2018-04-25T19:12:29.093Z,100446.59
2018-04-25T19:15:35.209Z,100439.71
2018-04-25T19:18:41.353Z,100438.09
2018-04-25T19:21:47.965Z,100442.00
2018-04-25T19:24:54.087Z,100446.03
2018-04-25T19:27:59.498Z,100441.89
2018-04-25T19:31:05.581Z,100440.50
2018-04-25T19:34:11.255Z,100435.58
2018-04-25T19:37:17.621Z,100441.83
2018-04-25T19:40:23.880Z,100443.09
2018-04-25T19:43:29.173Z,100440.83
2018-04-25T19:46:36.245Z,100449.60
2018-04-25T19:49:41.446Z,100449.11
2018-04-25T19:52:47.334Z,100452.09
2018-04-25T19:55:53.482Z,100447.75
2018-04-25T19:58:59.617Z,100448.25
2018-04-25T20:02:04.837Z,100442.46
2018-04-25T20:05:11.023Z,100444.20
2018-04-25T20:08:17.241Z,100447.84
2018-04-25T20:11:23.169Z,100442.33
2018-04-25T20:14:29.109Z,100442.99
2018-04-25T20:17:35.149Z,100440.96
2018-04-25T20:20:41.161Z,100444.85
2018-04-25T20:23:46.380Z,100445.80
2018-04-25T20:26:51.571Z,100445.34
2018-04-25T20:29:57.300Z,100448.27
2018-04-25T20:33:03.684Z,100449.22
2018-04-25T20:36:09.807Z,100450.20
2018-04-25T20:39:15.184Z,100451.98
2018-04-25T20:42:20.630Z,100451.32
2018-04-25T20:45:25.841Z,100459.42
2018-04-25T20:48:31.617Z,100460.87
2018-04-25T20:51:37.620Z,100460.57
2018-04-25T20:54:43.654Z,100462.46
2018-04-25T20:57:49.764Z,100455.19
2018-04-25T21:00:55.673Z,100455.31
2018-04-25T21:04:00.891Z,100458.70
2018-04-25T21:07:07.036Z,100456.75
2018-04-25T21:10:13.149Z,100449.80
2018-04-25T21:13:18.764Z,100454.14
2018-04-25T21:16:24.788Z,100456.45
2018-04-25T21:19:30.015Z,100458.94
2018-04-25T21:22:35.193Z,100453.61
2018-04-25T21:25:40.391Z,100456.80
2018-04-25T21:28:45.609Z,100463.09
2018-04-25T21:31:50.809Z,100471.88
2018-04-25T21:34:56.521Z,100463.44
2018-04-25T21:38:03.461Z,100464.83
2018-04-25T21:41:08.654Z,100463.55
2018-04-25T21:44:14.476Z,100461.33
2018-04-25T21:47:20.590Z,100458.06
2018-04-25T21:50:25.784Z,100459.99
2018-04-25T21:53:31.799Z,100455.55
2018-04-25T21:56:38.100Z,100460.04
2018-04-25T21:59:43.305Z,100459.12
2018-04-25T22:02:49.446Z,100464.86
2018-04-25T22:05:55.046Z,100461.73
2018-04-25T22:09:00.255Z,100462.22
2018-04-25T22:12:06.093Z,100463.16
2018-04-25T22:15:12.305Z,100463.83
2018-04-25T22:18:18.554Z,100464.24
2018-04-25T22:21:24.337Z,100467.41
2018-04-25T22:24:30.767Z,100464.47
2018-04-25T22:27:36.885Z,100464.34
2018-04-25T22:30:43.633Z,100462.69
2018-04-25T22:33:49.117Z,100460.64
2018-04-25T22:36:54.313Z,100472.62
2018-04-25T22:40:00.641Z,100461.80
2018-04-25T22:43:05.616Z,100466.20
2018-04-25T22:46:12.065Z,100466.77
2018-04-25T22:49:17.727Z,100465.25
2018-04-25T22:52:22.923Z,100462.08
2018-04-25T22:55:28.149Z,100466.81
2018-04-25T22:58:33.578Z,100468.20
2018-04-25T23:01:39.793Z,100474.32
2018-04-25T23:04:46.081Z,100469.34
2018-04-25T23:07:51.282Z,100475.02
2018-04-25T23:10:56.224Z,100466.92
2018-04-25T23:14:01.938Z,100474.44
2018-04-25T23:17:08.041Z,100467.77
2018-04-25T23:20:14.157Z,100461.34
2018-04-25T23:23:20.321Z,100464.62
2018-04-25T23:26:26.533Z,100465.93
2018-04-25T23:29:31.702Z,100470.80
2018-04-25T23:32:37.345Z,100460.95
2018-04-25T23:35:43.469Z,100462.78
2018-04-25T23:38:48.667Z,100457.87
2018-04-25T23:41:53.876Z,100459.67
2018-04-25T23:44:59.782Z,100458.05
2018-04-25T23:48:05.911Z,100453.45
2018-04-25T23:51:12.025Z,100451.80
2018-04-25T23:54:17.949Z,100452.52
2018-04-25T23:57:23.868Z,100451.58
